createdAt,value
2017-09-06T00:00:41.202Z,8.73
2017-09-06T00:03:09.085Z,8.90
2017-09-06T00:05:36.601Z,8.77
2017-09-06T00:08:04.119Z,8.00
2017-09-06T00:10:31.651Z,8.70
2017-09-06T00:12:59.219Z,9.50
2017-09-06T00:15:27.087Z,8.40
2017-09-06T00:17:54.640Z,8.40
2017-09-06T00:20:22.161Z,8.90
2017-09-06T00:22:49.725Z,9.70
2017-09-06T00:25:17.267Z,9.20
2017-09-06T00:27:45.184Z,8.73
2017-09-06T00:30:12.706Z,8.43
2017-09-06T00:32:40.261Z,8.87
2017-09-06T00:35:07.826Z,9.50
2017-09-06T00:37:35.368Z,9.30
2017-09-06T00:40:03.430Z,9.23
2017-09-06T00:42:30.961Z,8.60
2017-09-06T00:44:58.490Z,8.63
2017-09-06T00:47:26.068Z,9.77
2017-09-06T00:49:53.600Z,9.13
2017-09-06T00:52:21.511Z,8.70
2017-09-06T00:54:49.047Z,9.37
2017-09-06T00:57:16.634Z,9.30
2017-09-06T00:59:44.198Z,8.63
2017-09-06T01:02:11.757Z,10.00
2017-09-06T01:04:39.624Z,9.13
2017-09-06T01:07:07.150Z,8.40
2017-09-06T01:09:34.695Z,8.70
2017-09-06T01:12:02.252Z,8.60
2017-09-06T01:14:29.774Z,8.90
2017-09-06T01:16:57.631Z,10.30
2017-09-06T01:19:25.203Z,8.77
2017-09-06T01:21:52.731Z,8.97
2017-09-06T01:24:20.274Z,9.10
2017-09-06T01:26:47.814Z,8.70
2017-09-06T01:29:15.750Z,8.40
2017-09-06T01:31:43.266Z,9.40
2017-09-06T01:34:10.833Z,8.77
2017-09-06T01:36:38.402Z,8.43
2017-09-06T01:39:05.930Z,9.80
2017-09-06T01:41:33.750Z,9.10
2017-09-06T01:44:01.296Z,9.33
2017-09-06T01:46:28.824Z,9.27
2017-09-06T01:48:56.386Z,8.97
2017-09-06T01:51:23.927Z,9.20
2017-09-06T01:53:51.875Z,9.07
2017-09-06T01:56:19.417Z,9.57
2017-09-06T01:58:46.932Z,9.50
2017-09-06T02:01:14.527Z,8.90
2017-09-06T02:03:42.071Z,9.87
2017-09-06T02:06:10.033Z,8.60
2017-09-06T02:08:37.569Z,9.97
2017-09-06T02:11:05.100Z,10.23
2017-09-06T02:13:32.646Z,9.50
2017-09-06T02:16:00.260Z,9.23
2017-09-06T02:18:28.187Z,8.87
2017-09-06T02:20:55.695Z,9.17
2017-09-06T02:23:23.239Z,9.40
2017-09-06T02:25:50.791Z,9.47
2017-09-06T02:28:18.315Z,9.53
2017-09-06T02:30:46.161Z,9.17
2017-09-06T02:33:13.692Z,9.40
2017-09-06T02:35:41.233Z,9.10
2017-09-06T02:38:08.795Z,9.00
2017-09-06T02:40:36.329Z,9.27
2017-09-06T02:43:04.179Z,9.73
2017-09-06T02:45:31.755Z,9.87
2017-09-06T02:47:59.302Z,9.20
2017-09-06T02:50:26.860Z,9.63
2017-09-06T02:52:54.385Z,9.23
2017-09-06T02:55:22.230Z,10.30
2017-09-06T02:57:49.786Z,10.30
2017-09-06T03:00:17.312Z,10.50
2017-09-06T03:02:44.975Z,11.30
2017-09-06T03:05:12.531Z,11.40
2017-09-06T03:07:40.452Z,10.50
2017-09-06T03:10:07.976Z,10.07
2017-09-06T03:12:35.513Z,10.60
2017-09-06T03:15:03.088Z,10.80
2017-09-06T03:17:30.620Z,11.10
2017-09-06T03:19:58.517Z,10.80
2017-09-06T03:22:26.063Z,10.50
2017-09-06T03:24:53.596Z,10.70
2017-09-06T03:27:21.202Z,10.80
2017-09-06T03:29:48.747Z,12.17
2017-09-06T03:32:16.620Z,10.20
2017-09-06T03:34:44.172Z,11.53
2017-09-06T03:37:11.712Z,10.47
2017-09-06T03:39:39.294Z,9.40
2017-09-06T03:42:06.838Z,10.40
2017-09-06T03:44:34.670Z,11.07
2017-09-06T03:47:02.205Z,10.00
2017-09-06T03:49:29.781Z,10.90
2017-09-06T03:51:57.369Z,12.17
2017-09-06T03:54:24.900Z,11.53
2017-09-06T03:56:52.763Z,9.50
2017-09-06T03:59:20.280Z,10.90
2017-09-06T04:01:47.848Z,9.43
2017-09-06T04:04:15.390Z,9.97
2017-09-06T04:06:42.954Z,9.60
2017-09-06T04:09:11.016Z,10.57
2017-09-06T04:11:38.568Z,10.23
2017-09-06T04:14:06.133Z,9.30
2017-09-06T04:16:33.725Z,10.00
2017-09-06T04:19:01.259Z,9.50
2017-09-06T04:21:29.119Z,9.63
2017-09-06T04:23:56.654Z,8.97
2017-09-06T04:26:24.195Z,8.87
2017-09-06T04:28:51.729Z,9.70
2017-09-06T04:31:19.271Z,9.87
2017-09-06T04:33:47.274Z,9.43
2017-09-06T04:36:14.806Z,9.50
2017-09-06T04:38:42.342Z,8.90
2017-09-06T04:41:09.896Z,10.03
2017-09-06T04:43:37.450Z,9.40
2017-09-06T04:46:05.402Z,10.10
2017-09-06T04:48:32.959Z,10.37
2017-09-06T04:51:00.514Z,10.10
2017-09-06T04:53:28.104Z,10.13
2017-09-06T04:55:55.627Z,11.13
2017-09-06T04:58:23.533Z,10.97
2017-09-06T05:00:51.089Z,10.40
2017-09-06T05:03:18.639Z,10.07
2017-09-06T05:05:46.215Z,9.10
2017-09-06T05:08:13.821Z,10.03
2017-09-06T05:10:41.680Z,9.10
2017-09-06T05:13:09.960Z,9.60
2017-09-06T05:15:37.492Z,9.77
2017-09-06T05:18:05.058Z,9.97
2017-09-06T05:20:32.601Z,9.17
2017-09-06T05:23:00.540Z,13.40
2017-09-06T05:25:28.088Z,9.90
2017-09-06T05:27:55.658Z,9.70
2017-09-06T05:30:23.230Z,10.20
2017-09-06T05:32:50.780Z,9.60
2017-09-06T05:35:18.633Z,9.77
2017-09-06T05:37:46.175Z,9.13
2017-09-06T05:40:13.729Z,9.70
2017-09-06T05:42:41.283Z,9.33
2017-09-06T05:45:09.596Z,9.70
2017-09-06T05:47:37.443Z,10.20
2017-09-06T05:50:04.995Z,10.63
2017-09-06T05:52:32.544Z,9.40
2017-09-06T05:55:00.099Z,9.90
2017-09-06T05:57:27.641Z,10.60
2017-09-06T05:59:55.474Z,9.30
2017-09-06T06:02:23.005Z,9.10
2017-09-06T06:04:50.561Z,8.80
2017-09-06T06:07:18.126Z,10.10
2017-09-06T06:09:45.708Z,10.50
2017-09-06T06:12:13.623Z,9.10
2017-09-06T06:14:41.203Z,9.90
2017-09-06T06:17:09.710Z,9.80
2017-09-06T06:19:37.267Z,10.43
2017-09-06T06:22:04.826Z,11.70
2017-09-06T06:24:32.813Z,10.53
2017-09-06T06:27:00.404Z,9.33
2017-09-06T06:29:27.959Z,12.17
2017-09-06T06:31:55.603Z,11.23
2017-09-06T06:34:23.154Z,10.73
2017-09-06T06:36:51.058Z,9.57
2017-09-06T06:39:18.610Z,10.93
2017-09-06T06:41:46.185Z,10.10
2017-09-06T06:44:13.760Z,10.33
2017-09-06T06:46:41.302Z,10.23
2017-09-06T06:49:09.144Z,10.87
2017-09-06T06:51:36.700Z,11.10
2017-09-06T06:54:04.513Z,10.90
2017-09-06T06:56:32.166Z,10.70
2017-09-06T06:58:59.777Z,11.07
2017-09-06T07:01:27.694Z,10.50
2017-09-06T07:03:55.267Z,10.70
2017-09-06T07:06:22.827Z,12.13
2017-09-06T07:08:50.442Z,11.40
2017-09-06T07:11:17.989Z,10.67
2017-09-06T07:13:45.840Z,11.40
2017-09-06T07:16:13.389Z,10.40
2017-09-06T07:18:40.953Z,11.93
2017-09-06T07:21:08.509Z,10.37
2017-09-06T07:23:36.035Z,9.97
2017-09-06T07:26:03.916Z,12.27
2017-09-06T07:28:31.457Z,10.70
2017-09-06T07:30:58.989Z,10.37
2017-09-06T07:33:26.548Z,11.27
2017-09-06T07:35:54.091Z,10.80
2017-09-06T07:38:22.028Z,10.00
2017-09-06T07:40:49.563Z,10.67
2017-09-06T07:43:17.096Z,11.77
2017-09-06T07:45:44.666Z,14.50
2017-09-06T07:48:12.210Z,13.30
2017-09-06T07:50:40.137Z,11.67
2017-09-06T07:53:07.672Z,11.07
2017-09-06T07:55:35.206Z,9.47
2017-09-06T07:58:02.780Z,10.33
2017-09-06T08:00:30.320Z,10.60
2017-09-06T08:02:58.224Z,11.20
2017-09-06T08:05:25.748Z,11.87
2017-09-06T08:07:59.197Z,10.43
2017-09-06T08:10:26.717Z,10.90
2017-09-06T08:12:54.267Z,13.13
2017-09-06T08:15:21.856Z,9.43
2017-09-06T08:17:49.397Z,9.60
2017-09-06T08:20:17.321Z,11.33
2017-09-06T08:22:44.884Z,9.90
2017-09-06T08:25:12.433Z,8.70
2017-09-06T08:27:40.012Z,9.07
2017-09-06T08:30:07.554Z,8.80
2017-09-06T08:32:35.470Z,8.40
2017-09-06T08:35:03.011Z,8.60
2017-09-06T08:37:30.577Z,8.90
2017-09-06T08:39:58.171Z,8.10
2017-09-06T08:42:25.689Z,8.40
2017-09-06T08:44:53.525Z,9.20
2017-09-06T08:47:21.145Z,13.40
2017-09-06T08:49:48.684Z,8.90
2017-09-06T08:52:16.275Z,9.40
2017-09-06T08:54:43.822Z,9.00
2017-09-06T08:57:11.743Z,9.10
2017-09-06T08:59:39.276Z,8.37
2017-09-06T09:02:06.802Z,8.43
2017-09-06T09:04:34.406Z,8.87
2017-09-06T09:07:01.950Z,10.90
2017-09-06T09:09:29.794Z,8.50
2017-09-06T09:11:57.360Z,7.97
2017-09-06T09:14:24.910Z,9.60
2017-09-06T09:16:52.487Z,7.80
2017-09-06T09:19:20.042Z,8.70
2017-09-06T09:21:47.981Z,7.50
2017-09-06T09:24:15.491Z,7.00
2017-09-06T09:26:43.037Z,6.37
2017-09-06T09:29:10.587Z,6.27
2017-09-06T09:31:38.183Z,7.00
2017-09-06T09:34:06.000Z,5.90
2017-09-06T09:36:33.532Z,6.10
2017-09-06T09:39:01.070Z,5.07
2017-09-06T09:41:28.620Z,5.13
2017-09-06T09:43:56.190Z,4.47
2017-09-06T09:46:24.068Z,4.30
2017-09-06T09:48:51.635Z,3.87
2017-09-06T09:51:19.169Z,3.07
2017-09-06T09:53:46.767Z,3.17
2017-09-06T09:56:14.291Z,3.10
2017-09-06T09:58:42.123Z,3.00
2017-09-06T10:01:09.664Z,2.97
2017-09-06T10:03:37.186Z,3.00
2017-09-06T10:06:04.736Z,3.20
2017-09-06T10:08:32.267Z,2.63
2017-09-06T10:11:00.286Z,2.80
2017-09-06T10:13:27.863Z,2.43
2017-09-06T10:15:55.488Z,3.07
2017-09-06T10:18:23.069Z,2.67
2017-09-06T10:20:51.461Z,2.63
2017-09-06T10:23:19.327Z,3.40
2017-09-06T10:25:46.873Z,2.57
2017-09-06T10:28:14.391Z,3.17
2017-09-06T10:30:41.962Z,2.60
2017-09-06T10:33:09.561Z,2.93
2017-09-06T10:35:37.618Z,2.60
2017-09-06T10:38:05.252Z,3.17
2017-09-06T10:40:32.818Z,3.67
2017-09-06T10:43:00.448Z,2.67
2017-09-06T10:45:28.036Z,2.80
2017-09-06T10:47:55.983Z,2.50
2017-09-06T10:50:23.516Z,2.70
2017-09-06T10:52:51.118Z,2.63
2017-09-06T10:55:18.715Z,2.97
2017-09-06T10:57:46.339Z,3.13
2017-09-06T11:00:14.360Z,2.70
2017-09-06T11:02:41.933Z,2.63
2017-09-06T11:05:09.475Z,2.37
2017-09-06T11:07:37.042Z,2.63
2017-09-06T11:10:04.572Z,2.47
2017-09-06T11:12:32.470Z,2.63
2017-09-06T11:15:00.000Z,2.80
2017-09-06T11:17:27.558Z,2.30
2017-09-06T11:19:55.167Z,2.43
2017-09-06T11:22:22.790Z,2.23
2017-09-06T11:24:50.660Z,2.83
2017-09-06T11:27:18.214Z,2.20
2017-09-06T11:29:45.759Z,2.53
2017-09-06T11:32:13.377Z,2.27
2017-09-06T11:34:40.942Z,2.40
2017-09-06T11:37:08.832Z,2.30
2017-09-06T11:39:36.373Z,2.43
2017-09-06T11:42:03.906Z,2.87
2017-09-06T11:44:31.514Z,2.40
2017-09-06T11:46:59.095Z,2.40
2017-09-06T11:49:26.987Z,2.70
2017-09-06T11:51:54.558Z,2.30
2017-09-06T11:54:22.113Z,2.47
2017-09-06T11:56:49.725Z,3.20
2017-09-06T11:59:17.266Z,2.60
2017-09-06T12:01:45.093Z,2.77
2017-09-06T12:04:12.644Z,2.73
2017-09-06T12:06:40.176Z,2.70
2017-09-06T12:09:07.733Z,2.97
2017-09-06T12:11:35.277Z,3.20
2017-09-06T12:14:03.271Z,3.07
2017-09-06T12:16:30.803Z,2.97
2017-09-06T12:18:58.454Z,3.00
2017-09-06T12:21:26.009Z,3.10
2017-09-06T12:23:53.565Z,3.23
2017-09-06T12:26:21.417Z,3.07
2017-09-06T12:28:48.949Z,2.60
2017-09-06T12:31:18.177Z,3.27
2017-09-06T12:33:45.784Z,2.70
2017-09-06T12:36:13.368Z,2.80
2017-09-06T12:38:41.450Z,2.73
2017-09-06T12:41:09.740Z,2.90
2017-09-06T12:43:37.419Z,3.30
2017-09-06T12:46:04.977Z,3.20
2017-09-06T12:48:32.506Z,2.90
2017-09-06T12:51:00.319Z,3.07
2017-09-06T12:53:28.002Z,2.90
2017-09-06T12:55:55.826Z,2.70
2017-09-06T12:58:23.390Z,3.00
2017-09-06T13:00:51.020Z,3.27
2017-09-06T13:03:18.952Z,2.87
2017-09-06T13:05:46.777Z,2.70
2017-09-06T13:08:14.671Z,2.60
2017-09-06T13:10:42.243Z,2.60
2017-09-06T13:13:09.799Z,2.50
2017-09-06T13:15:37.721Z,2.77
2017-09-06T13:18:05.537Z,2.70
2017-09-06T13:20:33.212Z,2.47
2017-09-06T13:23:00.788Z,3.03
2017-09-06T13:25:28.317Z,2.27
2017-09-06T13:27:56.171Z,1.70
2017-09-06T13:30:23.711Z,1.60
2017-09-06T13:32:51.255Z,2.20
2017-09-06T13:35:18.840Z,1.87
2017-09-06T13:37:46.391Z,1.80
2017-09-06T13:40:14.230Z,1.70
2017-09-06T13:42:41.829Z,1.80
2017-09-06T13:45:09.370Z,1.73
2017-09-06T13:47:36.937Z,1.90
2017-09-06T13:50:04.516Z,1.30
2017-09-06T13:52:32.546Z,1.47
2017-09-06T13:55:00.084Z,1.60
2017-09-06T13:57:27.620Z,1.57
2017-09-06T13:59:55.192Z,1.60
2017-09-06T14:02:22.744Z,1.63
2017-09-06T14:04:50.562Z,1.70
2017-09-06T14:07:18.121Z,1.57
2017-09-06T14:09:45.672Z,1.67
2017-09-06T14:12:13.251Z,1.90
2017-09-06T14:14:40.892Z,1.70
2017-09-06T14:17:08.730Z,1.50
2017-09-06T14:19:36.316Z,1.60
2017-09-06T14:22:03.863Z,2.07
2017-09-06T14:24:31.447Z,1.87
2017-09-06T14:26:59.002Z,1.90
2017-09-06T14:29:26.840Z,1.63
2017-09-06T14:31:54.371Z,1.63
2017-09-06T14:34:21.892Z,1.47
2017-09-06T14:36:49.474Z,1.30
2017-09-06T14:39:17.030Z,1.33
2017-09-06T14:41:44.867Z,1.37
2017-09-06T14:44:12.382Z,1.50
2017-09-06T14:46:39.976Z,1.50
2017-09-06T14:49:07.645Z,1.40
2017-09-06T14:51:35.178Z,1.40
2017-09-06T14:54:03.010Z,1.10
2017-09-06T14:56:30.574Z,1.00
2017-09-06T14:58:58.113Z,1.50
2017-09-06T15:01:25.669Z,1.30
2017-09-06T15:03:53.246Z,1.40
2017-09-06T15:06:21.105Z,1.67
2017-09-06T15:08:48.632Z,1.37
2017-09-06T15:11:16.188Z,1.53
2017-09-06T15:13:43.732Z,1.57
2017-09-06T15:16:11.278Z,1.50
2017-09-06T15:18:39.184Z,1.40
2017-09-06T15:21:06.752Z,1.50
2017-09-06T15:23:34.335Z,1.43
2017-09-06T15:26:01.918Z,1.20
2017-09-06T15:28:29.467Z,1.17
2017-09-06T15:30:57.339Z,1.27
2017-09-06T15:33:24.891Z,1.60
2017-09-06T15:35:52.418Z,1.70
2017-09-06T15:38:19.973Z,1.90
2017-09-06T15:40:47.532Z,2.10
2017-09-06T15:43:15.378Z,2.27
2017-09-06T15:45:42.980Z,2.37
2017-09-06T15:48:10.555Z,2.83
2017-09-06T15:50:38.460Z,2.80
2017-09-06T15:53:06.000Z,3.50
2017-09-06T15:55:33.969Z,3.93
2017-09-06T15:58:01.508Z,3.17
2017-09-06T16:00:29.035Z,3.30
2017-09-06T16:02:56.627Z,3.73
2017-09-06T16:05:24.179Z,3.60
2017-09-06T16:07:52.123Z,3.87
2017-09-06T16:10:19.691Z,3.50
2017-09-06T16:12:47.231Z,3.77
2017-09-06T16:15:14.807Z,3.90
2017-09-06T16:17:42.400Z,4.57
2017-09-06T16:20:10.249Z,5.03
2017-09-06T16:22:37.795Z,4.40
2017-09-06T16:25:05.341Z,4.50
2017-09-06T16:27:32.969Z,5.13
2017-09-06T16:30:00.515Z,4.80
2017-09-06T16:32:28.409Z,4.83
2017-09-06T16:34:55.972Z,4.97
2017-09-06T16:37:23.515Z,5.57
2017-09-06T16:39:51.071Z,6.87
2017-09-06T16:42:18.711Z,5.47
2017-09-06T16:44:46.640Z,7.97
2017-09-06T16:47:14.219Z,5.60
2017-09-06T16:49:41.810Z,5.53
2017-09-06T16:52:09.383Z,6.27
2017-09-06T16:54:36.934Z,6.23
2017-09-06T16:57:04.907Z,5.47
2017-09-06T16:59:32.474Z,6.00
2017-09-06T17:02:00.088Z,6.70
2017-09-06T17:04:27.682Z,6.57
2017-09-06T17:06:55.229Z,6.20
2017-09-06T17:12:19.526Z,6.33
2017-09-06T17:14:47.446Z,6.27
2017-09-06T17:17:14.990Z,7.20
2017-09-06T17:19:42.619Z,7.40
2017-09-06T17:22:10.202Z,7.00
2017-09-06T17:24:37.776Z,7.37
2017-09-06T17:27:05.674Z,7.10
2017-09-06T17:29:33.239Z,6.63
2017-09-06T17:32:00.775Z,7.10
2017-09-06T17:34:28.374Z,6.60
2017-09-06T17:36:56.010Z,7.23
2017-09-06T17:39:23.873Z,6.90
2017-09-06T17:41:51.415Z,7.20
2017-09-06T17:44:18.967Z,7.70
2017-09-06T17:46:46.588Z,7.03
2017-09-06T17:49:14.290Z,7.20
2017-09-06T17:51:42.250Z,7.10
2017-09-06T17:54:09.793Z,7.37
2017-09-06T17:56:37.364Z,6.30
2017-09-06T17:59:04.937Z,6.80
2017-09-06T18:01:32.637Z,6.87
2017-09-06T18:04:00.483Z,6.30
2017-09-06T18:06:28.056Z,6.97
2017-09-06T18:08:55.612Z,6.07
2017-09-06T18:11:23.216Z,6.93
2017-09-06T18:13:50.945Z,6.60
2017-09-06T18:16:18.850Z,6.03
2017-09-06T18:18:46.428Z,6.80
2017-09-06T18:21:13.958Z,5.93
2017-09-06T18:23:41.526Z,6.50
2017-09-06T18:26:09.199Z,6.27
2017-09-06T18:28:37.208Z,6.50
2017-09-06T18:31:04.842Z,6.27
2017-09-06T18:33:32.401Z,6.90
2017-09-06T18:35:59.972Z,7.07
2017-09-06T18:38:27.557Z,7.30
2017-09-06T18:40:55.519Z,6.80
2017-09-06T18:43:23.092Z,6.17
2017-09-06T18:45:50.631Z,6.30
2017-09-06T18:48:18.217Z,6.30
2017-09-06T18:50:45.803Z,6.30
2017-09-06T18:53:13.769Z,6.27
2017-09-06T18:55:41.398Z,6.07
2017-09-06T18:58:08.948Z,6.03
2017-09-06T19:00:36.569Z,6.20
2017-09-06T19:03:04.137Z,5.97
2017-09-06T19:05:32.109Z,6.20
2017-09-06T19:07:59.646Z,5.70
2017-09-06T19:10:27.206Z,5.70
2017-09-06T19:12:54.794Z,6.00
2017-09-06T19:15:22.324Z,6.47
2017-09-06T19:17:50.187Z,6.50
2017-09-06T19:20:18.502Z,6.10
2017-09-06T19:22:46.136Z,6.23
2017-09-06T19:25:14.497Z,6.50
2017-09-06T19:27:42.083Z,5.70
2017-09-06T19:30:10.049Z,6.30
2017-09-06T19:32:38.573Z,5.70
2017-09-06T19:35:06.157Z,5.23
2017-09-06T19:37:33.881Z,6.03
2017-09-06T19:40:01.418Z,5.40
2017-09-06T19:42:29.413Z,5.37
2017-09-06T19:44:59.151Z,5.17
2017-09-06T19:47:26.776Z,5.57
2017-09-06T19:49:54.428Z,4.93
2017-09-06T19:52:22.033Z,6.57
2017-09-06T19:54:49.976Z,4.90
2017-09-06T19:57:18.361Z,5.90
2017-09-06T19:59:46.046Z,5.53
2017-09-06T20:02:13.679Z,6.00
2017-09-06T20:04:41.259Z,5.00
2017-09-06T20:07:09.150Z,4.63
2017-09-06T20:09:36.721Z,5.00
2017-09-06T20:12:04.289Z,5.00
2017-09-06T20:14:31.913Z,5.10
2017-09-06T20:16:59.457Z,4.60
2017-09-06T20:19:27.326Z,4.70
2017-09-06T20:21:54.883Z,4.40
2017-09-06T20:24:22.428Z,4.43
2017-09-06T20:26:50.012Z,4.27
2017-09-06T20:29:17.571Z,4.00
2017-09-06T20:31:45.409Z,4.13
2017-09-06T20:34:12.959Z,4.37
2017-09-06T20:36:40.516Z,4.30
2017-09-06T20:39:08.086Z,3.90
2017-09-06T20:41:35.657Z,4.47
2017-09-06T20:44:03.728Z,3.50
2017-09-06T20:46:31.325Z,4.13
2017-09-06T20:48:58.889Z,4.27
2017-09-06T20:51:26.496Z,4.07
2017-09-06T20:53:54.048Z,3.83
2017-09-06T20:56:21.916Z,4.80
2017-09-06T20:58:49.482Z,3.10
2017-09-06T21:01:17.122Z,4.13
2017-09-06T21:03:44.717Z,4.40
2017-09-06T21:06:12.328Z,3.23
2017-09-06T21:08:40.239Z,3.60
2017-09-06T21:11:07.894Z,3.00
2017-09-06T21:13:35.415Z,3.50
2017-09-06T21:16:02.994Z,4.60
2017-09-06T21:18:30.546Z,4.40
2017-09-06T21:20:58.398Z,3.17
2017-09-06T21:23:25.948Z,2.80
2017-09-06T21:25:53.485Z,3.17
2017-09-06T21:28:21.049Z,2.97
2017-09-06T21:30:48.666Z,3.30
2017-09-06T21:33:16.539Z,3.60
2017-09-06T21:35:44.085Z,2.97
2017-09-06T21:38:11.611Z,3.03
2017-09-06T21:40:39.184Z,3.10
2017-09-06T21:43:06.741Z,3.43
2017-09-06T21:45:34.655Z,2.90
2017-09-06T21:48:02.215Z,2.90
2017-09-06T21:50:29.744Z,3.60
2017-09-06T21:52:57.306Z,3.03
2017-09-06T21:55:24.834Z,3.23
2017-09-06T21:57:52.788Z,3.40
2017-09-06T22:00:20.337Z,2.70
2017-09-06T22:02:47.864Z,3.13
2017-09-06T22:05:15.417Z,2.70
2017-09-06T22:07:42.936Z,2.70
2017-09-06T22:10:10.785Z,2.93
2017-09-06T22:12:38.337Z,2.93
2017-09-06T22:15:05.909Z,3.00
2017-09-06T22:17:33.467Z,2.53
2017-09-06T22:20:01.007Z,3.20
2017-09-06T22:22:28.875Z,2.40
2017-09-06T22:24:56.432Z,3.87
2017-09-06T22:27:23.975Z,3.07
2017-09-06T22:29:51.557Z,3.07
2017-09-06T22:32:19.125Z,2.50
2017-09-06T22:34:46.677Z,2.90
2017-09-06T22:37:14.277Z,2.53
2017-09-06T22:39:41.837Z,2.90
2017-09-06T22:42:09.399Z,3.20
2017-09-06T22:44:36.970Z,3.23
2017-09-06T22:47:04.502Z,2.57
2017-09-06T22:49:32.039Z,3.23
2017-09-06T22:51:59.642Z,2.50
2017-09-06T22:54:27.171Z,2.37
2017-09-06T22:56:54.789Z,3.57
2017-09-06T22:59:22.415Z,2.10
2017-09-06T23:01:49.947Z,3.30
2017-09-06T23:04:17.476Z,2.37
2017-09-06T23:06:45.380Z,2.77
2017-09-06T23:09:12.922Z,2.50
2017-09-06T23:11:40.458Z,2.60
2017-09-06T23:14:08.286Z,2.43
2017-09-06T23:16:35.826Z,2.50
2017-09-06T23:19:03.379Z,2.47
2017-09-06T23:21:31.281Z,2.67
2017-09-06T23:23:58.823Z,2.13
2017-09-06T23:26:26.372Z,3.23
2017-09-06T23:28:54.250Z,2.17
2017-09-06T23:31:21.824Z,3.17
2017-09-06T23:33:49.367Z,2.53
2017-09-06T23:36:17.363Z,3.33
2017-09-06T23:38:44.866Z,2.50
2017-09-06T23:41:12.407Z,2.33
2017-09-06T23:43:40.771Z,2.87
2017-09-06T23:46:08.312Z,2.93
2017-09-06T23:48:35.852Z,3.23
2017-09-06T23:51:03.618Z,2.60
2017-09-06T23:53:31.158Z,2.33
2017-09-06T23:55:58.691Z,3.37
2017-09-06T23:58:26.501Z,3.67
